Time;durP1;ratioP1;P1;durP2;ratioP2;P2;SDS_P1;SDS_P2;PMS_P1;PMS_P2;Temp;Humidity;BMP_temperature;BMP_pressure;BME280_temperature;BME280_humidity;BME280_pressure;Samples;Min_cycle;Max_cycle;Signal;HPM_P1;HPM_P2
2023/12/21 00:02:24;;;;;;;3.92;0.95;;;10.20;99.90;;;;;;4857245;29;20402;-62
2023/12/21 00:04:52;;;;;;;9.88;0.88;;;10.20;99.90;;;;;;4864480;29;20072;-62
2023/12/21 00:07:20;;;;;;;4.32;0.73;;;10.10;99.90;;;;;;4866767;29;20053;-61
2023/12/21 00:09:48;;;;;;;5.55;1.33;;;10.10;99.90;;;;;;4860221;29;20529;-62
2023/12/21 00:12:15;;;;;;;8.13;0.98;;;10.10;99.90;;;;;;4871542;29;20504;-62
2023/12/21 00:14:44;;;;;;;9.95;1.38;;;10.10;99.90;;;;;;4865232;29;20072;-63
2023/12/21 00:17:12;;;;;;;9.90;0.98;;;10.10;99.90;;;;;;4854463;29;20045;-69
2023/12/21 00:19:39;;;;;;;5.03;1.05;;;10.10;99.90;;;;;;4854908;29;20058;-65
2023/12/21 00:22:08;;;;;;;4.90;0.85;;;10.10;99.90;;;;;;4859908;29;20057;-62
2023/12/21 00:24:35;;;;;;;6.18;1.15;;;10.20;99.90;;;;;;4860504;29;20064;-62
2023/12/21 00:27:04;;;;;;;5.30;0.82;;;10.20;99.90;;;;;;4873440;29;20057;-64
2023/12/21 00:29:32;;;;;;;8.38;0.75;;;10.20;99.90;;;;;;4874723;29;20486;-62
2023/12/21 00:31:59;;;;;;;5.72;1.05;;;10.30;99.90;;;;;;4869369;29;20057;-62
2023/12/21 00:34:28;;;;;;;7.38;0.73;;;10.30;99.90;;;;;;4870987;29;20497;-62
2023/12/21 00:36:57;;;;;;;6.03;1.00;;;10.30;99.90;;;;;;4872786;29;20068;-62
2023/12/21 00:39:25;;;;;;;3.08;0.68;;;10.40;99.90;;;;;;4856038;29;20045;-63
2023/12/21 00:41:57;;;;;;;5.45;0.68;;;10.40;99.90;;;;;;4868183;29;20528;-65
2023/12/21 00:44:25;;;;;;;4.40;0.80;;;10.40;99.90;;;;;;4887354;29;20056;-62
2023/12/21 00:46:53;;;;;;;2.60;0.77;;;10.40;99.90;;;;;;4874123;29;20347;-62
2023/12/21 00:49:22;;;;;;;1.90;0.60;;;10.40;99.90;;;;;;4874480;29;20049;-63
2023/12/21 00:51:50;;;;;;;4.43;0.50;;;10.50;99.90;;;;;;4872874;29;20045;-62
2023/12/21 00:54:18;;;;;;;2.20;0.65;;;10.50;99.90;;;;;;4868038;29;20429;-65
2023/12/21 00:56:46;;;;;;;3.70;0.43;;;10.50;99.90;;;;;;4865893;29;20054;-62
2023/12/21 00:59:15;;;;;;;5.82;0.43;;;10.50;99.90;;;;;;4858602;29;20061;-62
2023/12/21 01:01:43;;;;;;;2.53;0.40;;;10.50;99.90;;;;;;4865184;29;20502;-65
2023/12/21 01:04:11;;;;;;;3.78;1.48;;;10.50;99.90;;;;;;4878393;29;20049;-62
2023/12/21 01:06:39;;;;;;;3.22;0.65;;;10.50;99.90;;;;;;4860025;29;20060;-62
2023/12/21 01:09:08;;;;;;;6.30;1.67;;;10.50;99.90;;;;;;4859238;29;20057;-62
2023/12/21 01:11:36;;;;;;;5.43;0.70;;;10.50;99.90;;;;;;4865966;29;20048;-61
2023/12/21 01:14:04;;;;;;;4.65;0.80;;;10.60;99.90;;;;;;4877121;29;20045;-62
2023/12/21 01:16:32;;;;;;;5.47;0.70;;;10.60;99.90;;;;;;4861210;29;20406;-63
2023/12/21 01:19:01;;;;;;;3.33;0.73;;;10.60;99.90;;;;;;4877638;29;20045;-62
2023/12/21 01:21:28;;;;;;;3.30;0.65;;;10.60;99.90;;;;;;4870036;29;20068;-63
2023/12/21 01:23:56;;;;;;;3.63;0.50;;;10.70;99.90;;;;;;4864510;29;20171;-64
2023/12/21 01:26:25;;;;;;;2.78;0.55;;;10.70;99.90;;;;;;4877067;29;20143;-62
2023/12/21 01:28:53;;;;;;;0.50;0.17;;;10.70;99.90;;;;;;4877635;29;20528;-62
2023/12/21 01:31:21;;;;;;;3.78;0.50;;;10.70;99.90;;;;;;4872260;29;20060;-67
2023/12/21 01:33:49;;;;;;;2.60;0.63;;;10.70;99.90;;;;;;4862413;29;20053;-63
2023/12/21 01:36:18;;;;;;;4.65;0.50;;;10.70;99.90;;;;;;4877636;29;20068;-69
2023/12/21 01:38:46;;;;;;;5.45;0.60;;;10.70;99.90;;;;;;4874166;29;20049;-66
2023/12/21 01:41:14;;;;;;;1.33;0.50;;;10.60;99.90;;;;;;4877154;29;20045;-70
2023/12/21 01:43:44;;;;;;;2.33;0.32;;;10.60;99.90;;;;;;4876660;29;20052;-70
2023/12/21 01:46:12;;;;;;;5.05;0.88;;;10.60;99.90;;;;;;4875626;29;20060;-71
2023/12/21 01:48:42;;;;;;;1.95;0.70;;;10.60;99.90;;;;;;4875812;29;20060;-70
2023/12/21 01:51:11;;;;;;;4.20;0.63;;;10.60;99.90;;;;;;4873915;29;20065;-69
2023/12/21 01:53:40;;;;;;;2.40;0.50;;;10.50;99.90;;;;;;4862468;29;20044;-68
2023/12/21 01:56:07;;;;;;;5.35;0.68;;;10.50;99.90;;;;;;4876923;29;20041;-70
2023/12/21 01:58:38;;;;;;;3.30;0.70;;;10.60;99.90;;;;;;4864964;29;20501;-69
2023/12/21 02:01:07;;;;;;;2.13;0.52;;;10.60;99.90;;;;;;4864062;29;20684;-64
2023/12/21 02:03:35;;;;;;;1.75;0.40;;;10.60;99.90;;;;;;4862909;29;20072;-64
2023/12/21 02:06:03;;;;;;;2.67;0.45;;;10.60;99.90;;;;;;4876570;29;20057;-71
2023/12/21 02:08:31;;;;;;;1.45;0.38;;;10.70;99.90;;;;;;4869610;29;20049;-70
2023/12/21 02:11:08;;;;;;;0.75;0.30;;;10.70;99.90;;;;;;4856715;29;20057;-68
2023/12/21 02:13:36;;;;;;;1.15;0.60;;;10.70;99.90;;;;;;4873718;29;20068;-65
2023/12/21 02:16:07;;;;;;;3.28;0.50;;;10.70;99.90;;;;;;4876403;29;20501;-66
2023/12/21 02:18:36;;;;;;;3.72;0.50;;;10.70;99.90;;;;;;4875366;29;20056;-65
2023/12/21 02:21:05;;;;;;;3.20;0.93;;;10.70;99.90;;;;;;4873247;29;20057;-68
2023/12/21 02:23:37;;;;;;;1.15;0.52;;;10.70;99.90;;;;;;4867794;29;20052;-65
2023/12/21 02:26:06;;;;;;;1.13;0.50;;;10.70;99.90;;;;;;4874691;29;20056;-66
2023/12/21 02:28:34;;;;;;;2.05;0.32;;;10.70;99.90;;;;;;4858611;29;20530;-70
2023/12/21 02:31:02;;;;;;;2.30;0.30;;;10.70;99.90;;;;;;4859628;29;20046;-70
2023/12/21 02:33:30;;;;;;;2.40;0.50;;;10.70;99.90;;;;;;4864268;29;20041;-70
2023/12/21 02:35:58;;;;;;;3.35;0.40;;;10.70;99.90;;;;;;4868465;29;20049;-69
2023/12/21 02:38:26;;;;;;;1.00;0.13;;;10.90;99.90;;;;;;4857963;29;20053;-70
2023/12/21 02:40:54;;;;;;;0.43;0.20;;;10.80;99.90;;;;;;4857469;29;20056;-62
2023/12/21 02:43:21;;;;;;;0.82;0.20;;;10.80;99.90;;;;;;4860023;29;20417;-71
2023/12/21 02:45:49;;;;;;;1.42;0.30;;;10.90;99.90;;;;;;4875809;29;20049;-69
2023/12/21 02:48:18;;;;;;;0.68;0.40;;;10.90;99.90;;;;;;4872983;29;20037;-63
2023/12/21 02:50:46;;;;;;;1.60;0.20;;;11.00;99.90;;;;;;4876148;29;20052;-63
2023/12/21 02:53:13;;;;;;;1.48;0.30;;;11.00;99.90;;;;;;4858884;29;20065;-62
2023/12/21 02:55:42;;;;;;;1.35;0.30;;;11.10;99.90;;;;;;4875254;29;20405;-70
2023/12/21 02:58:10;;;;;;;3.10;0.30;;;11.10;99.90;;;;;;4868074;29;20064;-62
2023/12/21 03:00:38;;;;;;;1.35;0.20;;;11.10;99.90;;;;;;4857230;29;20053;-64
2023/12/21 03:03:06;;;;;;;2.47;0.55;;;11.20;99.90;;;;;;4856570;29;20064;-64
2023/12/21 03:05:34;;;;;;;2.95;0.30;;;11.20;99.90;;;;;;4869455;29;20067;-69
2023/12/21 03:08:03;;;;;;;1.27;0.20;;;11.30;99.90;;;;;;4858486;29;20042;-70
2023/12/21 03:10:32;;;;;;;2.13;0.20;;;11.30;99.90;;;;;;4856474;29;20064;-68
2023/12/21 03:13:02;;;;;;;1.20;0.20;;;11.30;99.90;;;;;;4856813;29;20498;-63
2023/12/21 03:15:31;;;;;;;6.20;0.45;;;11.30;99.90;;;;;;4869748;29;20053;-70
2023/12/21 03:17:59;;;;;;;0.63;0.20;;;11.30;99.90;;;;;;4866630;29;20049;-70
2023/12/21 03:20:27;;;;;;;3.03;0.35;;;11.30;99.90;;;;;;4875362;29;20075;-70
2023/12/21 03:22:55;;;;;;;2.20;0.57;;;11.40;99.90;;;;;;4862036;29;20045;-70
2023/12/21 03:25:23;;;;;;;2.33;0.22;;;11.40;99.90;;;;;;4865658;29;20524;-64
2023/12/21 03:27:50;;;;;;;0.90;0.25;;;11.50;99.90;;;;;;4875302;29;20053;-69
2023/12/21 03:30:20;;;;;;;1.55;0.10;;;11.50;99.90;;;;;;4861255;29;20409;-68
2023/12/21 03:32:48;;;;;;;0.88;0.20;;;11.50;99.90;;;;;;4857579;29;20053;-70
2023/12/21 03:35:17;;;;;;;0.55;0.10;;;11.50;99.90;;;;;;4870556;29;20068;-68
2023/12/21 03:37:45;;;;;;;0.90;0.20;;;11.50;99.90;;;;;;4867855;29;20061;-70
2023/12/21 03:40:13;;;;;;;0.50;0.20;;;11.50;99.90;;;;;;4856457;29;20054;-70
2023/12/21 03:42:41;;;;;;;0.30;0.10;;;11.60;99.90;;;;;;4856211;29;20506;-70
2023/12/21 03:45:09;;;;;;;0.40;0.20;;;11.50;99.90;;;;;;4872446;29;20108;-70
2023/12/21 03:47:36;;;;;;;3.25;0.30;;;11.50;99.90;;;;;;4875962;29;20056;-70
2023/12/21 03:50:05;;;;;;;2.28;0.17;;;11.50;99.90;;;;;;4859641;29;20399;-66
2023/12/21 03:52:33;;;;;;;0.75;0.10;;;11.50;99.90;;;;;;4872395;29;20055;-64
2023/12/21 03:55:01;;;;;;;1.45;0.20;;;11.50;99.90;;;;;;4866036;29;20614;-62
2023/12/21 03:57:30;;;;;;;0.60;0.10;;;11.50;99.90;;;;;;4863285;29;20037;-63
2023/12/21 04:00:00;;;;;;;0.10;0.10;;;11.50;99.90;;;;;;4878166;29;20053;-62
2023/12/21 04:02:32;;;;;;;1.55;0.17;;;11.50;99.90;;;;;;4866548;29;20049;-63
2023/12/21 04:05:01;;;;;;;1.00;0.10;;;11.50;99.90;;;;;;4866983;29;20376;-62
2023/12/21 04:07:30;;;;;;;3.28;0.17;;;11.50;99.90;;;;;;4869478;29;20060;-62
2023/12/21 04:09:57;;;;;;;1.33;0.20;;;11.60;99.90;;;;;;4877547;29;20509;-63
2023/12/21 04:12:26;;;;;;;1.20;0.10;;;11.60;99.90;;;;;;4877764;29;20052;-63
2023/12/21 04:14:53;;;;;;;0.65;0.22;;;11.60;99.90;;;;;;4867253;29;20064;-62
2023/12/21 04:17:21;;;;;;;1.38;0.13;;;11.60;99.90;;;;;;4859428;29;20541;-63
2023/12/21 04:19:49;;;;;;;1.55;0.13;;;11.60;99.90;;;;;;4857740;29;20061;-64
2023/12/21 04:22:18;;;;;;;0.25;0.10;;;11.60;99.90;;;;;;4860467;29;20056;-61
2023/12/21 04:24:46;;;;;;;1.13;0.30;;;11.70;99.90;;;;;;4868173;29;20060;-63
2023/12/21 04:27:14;;;;;;;1.10;0.25;;;11.70;99.90;;;;;;4872964;29;20049;-63
2023/12/21 04:29:42;;;;;;;1.20;0.20;;;11.70;99.90;;;;;;4874873;29;20037;-62
2023/12/21 04:32:09;;;;;;;1.08;0.20;;;11.70;99.90;;;;;;4870098;29;20060;-63
2023/12/21 04:34:37;;;;;;;1.00;0.30;;;11.80;99.90;;;;;;4866677;29;20470;-62
2023/12/21 04:37:05;;;;;;;1.48;0.17;;;11.80;99.90;;;;;;4881529;29;20045;-62
2023/12/21 04:39:34;;;;;;;1.10;0.20;;;11.80;99.90;;;;;;4868107;29;20049;-59
2023/12/21 04:42:02;;;;;;;0.00;0.00;;;11.80;99.90;;;;;;4862982;29;20050;-59
2023/12/21 04:44:30;;;;;;;1.98;0.20;;;11.80;99.90;;;;;;4866948;29;20516;-62
2023/12/21 04:46:58;;;;;;;0.90;0.10;;;11.90;99.90;;;;;;4881259;29;20512;-62
2023/12/21 04:49:27;;;;;;;2.17;0.20;;;11.90;99.90;;;;;;4881567;29;20053;-61
2023/12/21 04:51:55;;;;;;;0.10;0.00;;;11.90;99.90;;;;;;4876608;29;20060;-64
2023/12/21 04:54:23;;;;;;;2.33;0.13;;;12.00;99.90;;;;;;4878239;29;20049;-62
2023/12/21 04:56:50;;;;;;;0.20;0.10;;;12.00;99.90;;;;;;4862657;29;20379;-62
2023/12/21 04:59:18;;;;;;;0.65;0.17;;;12.10;99.90;;;;;;4860774;29;20070;-62
2023/12/21 05:01:50;;;;;;;0.60;0.10;;;12.10;99.90;;;;;;4862755;29;20076;-62
2023/12/21 05:04:18;;;;;;;0.43;0.13;;;12.20;99.90;;;;;;4875430;29;20057;-63
2023/12/21 05:06:46;;;;;;;0.45;0.20;;;12.20;99.90;;;;;;4869258;29;20053;-63
2023/12/21 05:09:14;;;;;;;0.10;0.00;;;12.20;99.90;;;;;;4880921;29;20045;-62
2023/12/21 05:11:42;;;;;;;0.05;0.05;;;12.30;99.90;;;;;;4880884;29;20049;-61
2023/12/21 05:14:09;;;;;;;0.57;0.17;;;12.30;99.90;;;;;;4880124;29;20048;-65
2023/12/21 05:16:39;;;;;;;0.45;0.08;;;12.30;99.90;;;;;;4880686;29;20049;-62
2023/12/21 05:19:09;;;;;;;;;;;12.40;99.90;;;;;;4881215;29;20068;-62
2023/12/21 05:21:37;;;;;;;0.55;0.10;;;12.40;99.90;;;;;;4878988;29;19932;-63
2023/12/21 05:24:05;;;;;;;0.45;0.10;;;12.30;99.90;;;;;;4879763;29;20064;-62
2023/12/21 05:26:32;;;;;;;1.15;0.17;;;12.40;99.90;;;;;;4861914;29;20060;-65
2023/12/21 05:29:02;;;;;;;1.08;0.10;;;12.40;99.90;;;;;;4862199;29;20048;-65
2023/12/21 05:31:31;;;;;;;0.28;0.10;;;12.40;99.90;;;;;;4862018;29;20056;-65
2023/12/21 05:33:59;;;;;;;8.23;0.35;;;12.50;99.90;;;;;;4861002;29;20670;-69
2023/12/21 05:36:28;;;;;;;2.33;0.30;;;12.40;99.90;;;;;;4880182;29;20075;-65
2023/12/21 05:38:56;;;;;;;3.85;0.20;;;12.50;99.90;;;;;;4879355;29;20056;-65
2023/12/21 05:41:23;;;;;;;1.08;0.20;;;12.50;99.90;;;;;;4880442;29;20052;-65
2023/12/21 05:43:51;;;;;;;1.13;0.20;;;12.50;99.90;;;;;;4880225;29;20060;-64
2023/12/21 05:46:19;;;;;;;2.17;0.30;;;12.50;99.90;;;;;;4863365;29;20049;-70
2023/12/21 05:48:47;;;;;;;0.10;0.10;;;12.50;99.90;;;;;;4860568;29;20068;-66
2023/12/21 05:51:16;;;;;;;0.40;0.40;;;12.50;99.90;;;;;;4866203;29;20057;-63
2023/12/21 05:53:44;;;;;;;1.58;0.13;;;12.50;99.90;;;;;;4858466;29;20045;-64
2023/12/21 05:56:11;;;;;;;2.05;0.30;;;12.50;99.90;;;;;;4872908;29;20621;-63
2023/12/21 05:58:39;;;;;;;2.85;0.20;;;12.50;99.90;;;;;;4875711;29;20049;-62
2023/12/21 06:01:09;;;;;;;1.73;0.52;;;12.50;99.90;;;;;;4870722;29;20058;-62
2023/12/21 06:03:37;;;;;;;0.43;0.10;;;12.50;99.90;;;;;;4857060;29;20061;-62
2023/12/21 06:06:05;;;;;;;1.98;0.10;;;12.50;99.90;;;;;;4855937;29;20041;-63
2023/12/21 06:08:33;;;;;;;1.25;0.20;;;12.50;99.90;;;;;;4857459;29;20049;-63
2023/12/21 06:11:01;;;;;;;0.65;0.10;;;12.50;99.90;;;;;;4860903;29;20514;-64
2023/12/21 06:13:29;;;;;;;1.00;0.20;;;12.50;99.90;;;;;;4871208;29;20053;-63
2023/12/21 06:15:58;;;;;;;0.47;0.05;;;12.50;99.90;;;;;;4875486;29;20057;-69
2023/12/21 06:18:26;;;;;;;0.82;0.30;;;12.40;99.90;;;;;;4859737;29;20068;-70
2023/12/21 06:20:54;;;;;;;1.60;0.15;;;12.40;99.90;;;;;;4858299;29;20053;-70
2023/12/21 06:23:22;;;;;;;0.68;0.13;;;12.40;99.90;;;;;;4869423;29;20056;-64
2023/12/21 06:25:50;;;;;;;2.08;0.10;;;12.40;99.90;;;;;;4863594;29;20050;-69
2023/12/21 06:28:18;;;;;;;2.75;0.45;;;12.40;99.90;;;;;;4868507;29;20049;-67
2023/12/21 06:30:47;;;;;;;0.57;0.30;;;12.40;99.90;;;;;;4859577;29;20049;-63
2023/12/21 06:33:15;;;;;;;0.32;0.17;;;12.40;99.90;;;;;;4863258;29;20052;-65
2023/12/21 06:35:43;;;;;;;1.58;0.15;;;12.40;99.90;;;;;;4863186;29;20060;-66
2023/12/21 06:38:11;;;;;;;3.38;0.20;;;12.30;99.90;;;;;;4862965;29;20057;-70
2023/12/21 06:40:39;;;;;;;3.17;0.25;;;12.30;99.90;;;;;;4869666;29;20061;-69
2023/12/21 06:43:07;;;;;;;1.65;0.20;;;12.30;99.90;;;;;;4878833;29;20045;-69
2023/12/21 06:45:35;;;;;;;0.95;0.17;;;12.30;99.90;;;;;;4871957;29;20489;-68
2023/12/21 06:48:03;;;;;;;1.20;0.28;;;12.20;99.90;;;;;;4868768;29;20508;-71
2023/12/21 06:50:31;;;;;;;2.15;0.10;;;12.20;99.90;;;;;;4857317;29;20046;-70
2023/12/21 06:53:00;;;;;;;0.43;0.10;;;12.20;99.90;;;;;;4870921;29;20061;-70
2023/12/21 06:55:28;;;;;;;1.17;0.10;;;12.20;99.90;;;;;;4872972;29;20383;-71
2023/12/21 06:57:56;;;;;;;0.28;0.10;;;12.20;99.90;;;;;;4870531;29;20053;-63
2023/12/21 07:00:24;;;;;;;0.30;0.10;;;12.20;99.90;;;;;;4875549;29;20044;-64
2023/12/21 07:02:51;;;;;;;2.33;0.10;;;12.20;99.90;;;;;;4872123;29;20059;-68
2023/12/21 07:05:20;;;;;;;1.83;0.10;;;12.20;99.90;;;;;;4867613;29;20065;-70
2023/12/21 07:07:48;;;;;;;4.50;0.32;;;12.20;99.90;;;;;;4853626;29;20596;-61
2023/12/21 07:10:17;;;;;;;1.02;0.30;;;12.20;99.90;;;;;;4862086;29;20049;-64
2023/12/21 07:12:46;;;;;;;1.13;0.30;;;12.10;99.90;;;;;;4875009;29;20049;-70
2023/12/21 07:15:14;;;;;;;1.55;0.20;;;12.10;99.90;;;;;;4875101;29;20053;-70
2023/12/21 07:17:42;;;;;;;0.68;0.20;;;12.10;99.90;;;;;;4871277;29;20057;-68
2023/12/21 07:20:10;;;;;;;1.65;0.35;;;12.10;99.90;;;;;;4857590;29;20052;-64
2023/12/21 07:22:38;;;;;;;0.45;0.20;;;12.10;99.90;;;;;;4856932;29;20058;-66
2023/12/21 07:25:06;;;;;;;2.08;0.20;;;12.10;99.90;;;;;;4852434;29;20048;-63
2023/12/21 07:27:35;;;;;;;2.65;0.43;;;12.20;99.90;;;;;;4856255;29;20061;-63
2023/12/21 07:30:04;;;;;;;1.70;0.32;;;12.10;99.90;;;;;;4872049;29;20041;-63
2023/12/21 07:32:32;;;;;;;1.65;0.38;;;12.10;99.90;;;;;;4873541;29;20049;-64
2023/12/21 07:35:00;;;;;;;2.92;0.47;;;12.10;99.90;;;;;;4859323;29;20042;-66
2023/12/21 07:37:28;;;;;;;2.42;0.40;;;12.20;99.90;;;;;;4858142;29;20057;-62
2023/12/21 07:39:57;;;;;;;3.05;0.38;;;12.20;99.90;;;;;;4867845;29;20374;-62
2023/12/21 07:42:24;;;;;;;6.03;0.38;;;12.20;99.90;;;;;;4868475;29;20508;-61
2023/12/21 07:44:52;;;;;;;2.83;0.55;;;12.20;99.90;;;;;;4868674;29;20060;-61
2023/12/21 07:47:19;;;;;;;1.77;0.30;;;12.20;99.90;;;;;;4855343;29;20060;-62
2023/12/21 07:49:47;;;;;;;0.73;0.28;;;12.20;99.90;;;;;;4857804;29;20050;-61
2023/12/21 07:52:15;;;;;;;3.25;0.32;;;12.20;99.90;;;;;;4868819;29;20068;-63
2023/12/21 07:54:43;;;;;;;3.38;0.40;;;12.20;99.90;;;;;;4852920;29;20050;-59
2023/12/21 07:57:12;;;;;;;2.60;0.45;;;12.20;99.90;;;;;;4854661;29;20041;-63
2023/12/21 07:59:41;;;;;;;2.30;0.20;;;12.20;99.90;;;;;;4865068;29;20156;-62
2023/12/21 08:02:09;;;;;;;2.25;0.25;;;12.20;99.90;;;;;;4872258;29;20068;-62
2023/12/21 08:04:36;;;;;;;2.45;0.30;;;12.20;99.90;;;;;;4861794;29;20045;-63
2023/12/21 08:07:04;;;;;;;1.38;0.30;;;12.20;99.90;;;;;;4870521;29;20064;-62
2023/12/21 08:09:32;;;;;;;0.75;0.20;;;12.20;99.90;;;;;;4856564;29;20053;-62
2023/12/21 08:12:00;;;;;;;2.78;0.30;;;12.20;99.90;;;;;;4861031;29;20057;-61
2023/12/21 08:14:31;;;;;;;1.15;0.20;;;12.20;99.90;;;;;;4873565;29;20049;-62
2023/12/21 08:17:02;;;;;;;3.47;0.40;;;12.20;99.90;;;;;;4857465;29;20065;-62
2023/12/21 08:19:31;;;;;;;1.65;0.60;;;12.20;99.90;;;;;;4864033;29;20074;-62
2023/12/21 08:22:00;;;;;;;3.13;0.55;;;12.20;99.90;;;;;;4857560;29;20054;-65
2023/12/21 08:24:28;;;;;;;1.45;0.30;;;12.20;99.90;;;;;;4874671;29;20053;-61
2023/12/21 08:26:56;;;;;;;3.80;0.40;;;12.20;99.90;;;;;;4864086;29;20053;-61
2023/12/21 08:29:24;;;;;;;2.33;0.20;;;12.20;99.90;;;;;;4871937;29;20044;-64
2023/12/21 08:31:52;;;;;;;1.55;0.30;;;12.20;99.90;;;;;;4858647;29;20054;-63
2023/12/21 08:34:22;;;;;;;0.73;0.20;;;12.20;99.90;;;;;;4859997;29;20486;-62
2023/12/21 08:36:50;;;;;;;1.40;0.45;;;12.20;99.90;;;;;;4855686;29;20139;-62
2023/12/21 08:39:19;;;;;;;0.25;0.13;;;12.20;99.90;;;;;;4871129;29;20383;-63
2023/12/21 08:41:46;;;;;;;1.60;0.25;;;12.20;99.90;;;;;;4873313;29;20065;-63
2023/12/21 08:44:15;;;;;;;1.38;0.40;;;12.20;99.90;;;;;;4872098;29;20053;-62
2023/12/21 08:46:43;;;;;;;1.98;0.60;;;12.10;99.90;;;;;;4856350;29;20710;-64
2023/12/21 08:49:12;;;;;;;2.10;0.30;;;12.10;99.90;;;;;;4855295;29;20057;-64
2023/12/21 08:51:41;;;;;;;2.93;0.23;;;12.10;99.90;;;;;;4854579;29;20054;-62
2023/12/21 08:54:09;;;;;;;0.93;0.28;;;12.10;99.90;;;;;;4863413;29;20420;-62
2023/12/21 08:56:44;;;;;;;5.55;0.47;;;12.10;99.90;;;;;;4839181;29;20049;-65
2023/12/21 08:59:12;;;;;;;3.22;0.35;;;12.10;99.90;;;;;;4855503;29;20049;-65
2023/12/21 09:01:41;;;;;;;3.35;0.73;;;12.00;99.90;;;;;;4870813;29;20072;-64
2023/12/21 09:04:09;;;;;;;4.03;0.57;;;12.00;99.90;;;;;;4869592;29;20064;-62
2023/12/21 09:06:37;;;;;;;1.90;0.50;;;11.90;99.90;;;;;;4855448;29;20053;-63
2023/12/21 09:09:05;;;;;;;1.38;0.40;;;11.90;99.90;;;;;;4868871;29;20049;-62
2023/12/21 09:11:32;;;;;;;2.78;0.50;;;11.80;99.90;;;;;;4855667;29;20050;-63
2023/12/21 09:14:00;;;;;;;5.60;0.57;;;11.70;99.90;;;;;;4871449;29;20053;-64
2023/12/21 09:16:28;;;;;;;3.63;0.52;;;11.50;99.90;;;;;;4872962;29;20064;-67
2023/12/21 09:18:57;;;;;;;3.53;0.50;;;11.50;99.90;;;;;;4873577;29;20059;-62
2023/12/21 09:21:26;;;;;;;2.80;0.33;;;11.30;99.90;;;;;;4870913;29;20049;-62
2023/12/21 09:23:55;;;;;;;3.65;0.70;;;11.30;99.90;;;;;;4867173;29;20046;-62
2023/12/21 09:26:22;;;;;;;1.08;0.30;;;11.30;99.90;;;;;;4858665;29;20052;-62
2023/12/21 09:28:50;;;;;;;1.83;0.47;;;11.30;99.90;;;;;;4858560;29;20061;-62
2023/12/21 09:31:18;;;;;;;3.45;0.68;;;11.30;99.90;;;;;;4867828;29;20056;-62
2023/12/21 09:33:46;;;;;;;4.00;0.82;;;11.40;99.90;;;;;;4876953;29;20053;-62
2023/12/21 09:36:15;;;;;;;1.48;0.28;;;11.40;99.90;;;;;;4864465;29;20124;-70
2023/12/21 09:38:43;;;;;;;1.55;0.25;;;11.40;99.90;;;;;;4859348;29;20486;-70
2023/12/21 09:41:11;;;;;;;4.00;0.40;;;11.50;99.90;;;;;;4867937;29;20057;-62
2023/12/21 09:43:42;;;;;;;1.35;0.30;;;11.50;99.90;;;;;;4876651;29;20068;-70
2023/12/21 09:46:13;;;;;;;2.60;0.38;;;11.50;99.90;;;;;;4876353;29;20059;-62
2023/12/21 09:48:43;;;;;;;3.83;0.65;;;11.50;99.90;;;;;;4869648;29;20057;-67
2023/12/21 09:51:16;;;;;;;1.40;0.40;;;11.50;99.90;;;;;;4861701;29;20049;-64
2023/12/21 09:53:45;;;;;;;2.92;0.30;;;11.50;99.90;;;;;;4872390;29;20079;-62
2023/12/21 09:56:14;;;;;;;3.97;0.88;;;11.50;99.90;;;;;;4873908;29;20524;-62
2023/12/21 09:58:43;;;;;;;2.25;0.50;;;11.50;99.90;;;;;;4871022;29;20052;-66
2023/12/21 10:01:10;;;;;;;3.50;0.55;;;11.50;99.90;;;;;;4876941;29;20805;-63
2023/12/21 10:03:39;;;;;;;5.38;0.50;;;11.50;99.90;;;;;;4864572;29;20695;-62
2023/12/21 10:06:07;;;;;;;2.40;0.60;;;11.40;99.90;;;;;;4858574;29;20050;-61
2023/12/21 10:08:36;;;;;;;5.72;0.70;;;11.40;99.90;;;;;;4857783;29;20410;-63
2023/12/21 10:11:06;;;;;;;6.00;0.90;;;11.30;99.90;;;;;;4865073;29;20045;-66
2023/12/21 10:13:34;;;;;;;4.47;0.65;;;11.20;99.90;;;;;;4873043;29;20525;-64
2023/12/21 10:16:04;;;;;;;4.60;0.70;;;11.00;99.90;;;;;;4861134;29;20171;-62
2023/12/21 10:18:31;;;;;;;4.53;0.40;;;11.00;99.90;;;;;;4867069;29;20056;-60
2023/12/21 10:21:00;;;;;;;6.15;1.30;;;11.00;99.90;;;;;;4870852;29;20053;-63
2023/12/21 10:23:27;;;;;;;6.15;0.88;;;10.90;99.90;;;;;;4875980;29;20053;-65
2023/12/21 10:25:58;;;;;;;6.82;0.98;;;10.90;99.90;;;;;;4869193;29;20499;-62
2023/12/21 10:28:26;;;;;;;6.40;1.25;;;10.90;99.90;;;;;;4858184;29;20482;-62
2023/12/21 10:30:55;;;;;;;8.82;1.48;;;10.90;99.90;;;;;;4856914;29;20057;-65
2023/12/21 10:33:27;;;;;;;3.60;0.93;;;10.90;99.90;;;;;;4868524;29;20118;-62
2023/12/21 10:35:56;;;;;;;9.65;0.90;;;11.00;99.90;;;;;;4866150;29;20041;-64
2023/12/21 10:38:24;;;;;;;9.40;1.23;;;11.00;99.90;;;;;;4873022;29;20045;-63
2023/12/21 10:40:52;;;;;;;4.47;0.90;;;11.10;99.90;;;;;;4876109;29;20052;-64
2023/12/21 10:43:21;;;;;;;5.50;1.30;;;11.10;99.90;;;;;;4874650;29;20053;-62
2023/12/21 10:45:49;;;;;;;34.85;10.35;;;11.20;99.90;;;;;;4858279;29;20054;-62
2023/12/21 10:48:19;;;;;;;9.30;3.22;;;11.30;99.90;;;;;;4860066;29;20042;-62
2023/12/21 10:50:49;;;;;;;14.68;7.35;;;11.30;99.90;;;;;;4857736;29;20417;-66
2023/12/21 10:53:22;;;;;;;7.38;1.13;;;11.50;99.90;;;;;;4867742;29;20688;-64
2023/12/21 10:55:51;;;;;;;8.10;1.30;;;11.60;99.90;;;;;;4866450;29;20045;-66
2023/12/21 10:58:21;;;;;;;7.93;1.30;;;11.50;99.90;;;;;;4869689;29;20049;-66
2023/12/21 11:00:50;;;;;;;9.80;1.27;;;11.60;99.90;;;;;;4857262;29;20053;-63
2023/12/21 11:03:19;;;;;;;6.78;1.77;;;11.60;99.90;;;;;;4867510;29;20052;-62
2023/12/21 11:05:48;;;;;;;9.95;1.45;;;11.70;99.90;;;;;;4868334;29;20068;-64
2023/12/21 11:08:18;;;;;;;14.23;1.42;;;11.60;99.90;;;;;;4869303;29;20048;-62
2023/12/21 11:10:47;;;;;;;7.18;1.15;;;11.70;99.90;;;;;;4861298;29;20060;-62
2023/12/21 11:13:15;;;;;;;5.47;1.27;;;11.80;99.90;;;;;;4871484;29;20045;-63
2023/12/21 11:15:44;;;;;;;11.18;1.48;;;12.00;99.90;;;;;;4874652;29;20049;-61
2023/12/21 11:18:20;;;;;;;12.07;2.37;;;12.10;99.90;;;;;;4870561;29;20064;-59
2023/12/21 11:20:57;;;;;;;11.25;2.22;;;12.20;99.90;;;;;;4862984;29;20064;-62
2023/12/21 11:23:26;;;;;;;12.07;1.50;;;12.40;99.90;;;;;;4866784;29;20048;-62
2023/12/21 11:25:59;;;;;;;9.40;1.23;;;12.50;99.90;;;;;;4859521;29;20049;-63
2023/12/21 11:28:32;;;;;;;7.90;1.17;;;12.60;99.90;;;;;;4862603;29;20319;-62
2023/12/21 11:31:15;;;;;;;9.93;1.63;;;12.60;99.90;;;;;;4873273;29;20070;-63
2023/12/21 11:33:44;;;;;;;7.63;1.50;;;12.50;99.90;;;;;;4872047;29;20053;-62
2023/12/21 11:36:25;;;;;;;15.98;1.52;;;12.40;99.90;;;;;;4866759;29;20060;-63
2023/12/21 11:38:53;;;;;;;15.07;1.92;;;12.10;99.90;;;;;;4882675;29;20516;-62
2023/12/21 11:41:23;;;;;;;4.65;1.13;;;11.90;99.90;;;;;;4860002;29;20516;-61
2023/12/21 11:44:03;;;;;;;8.25;1.25;;;11.60;99.90;;;;;;4869833;29;20052;-62
2023/12/21 11:46:32;;;;;;;8.83;1.20;;;11.40;99.90;;;;;;4873983;29;20050;-62
2023/12/21 11:49:01;;;;;;;13.18;1.50;;;11.20;99.90;;;;;;4856187;29;20060;-62
2023/12/21 11:51:29;;;;;;;10.75;1.63;;;11.00;99.90;;;;;;4861813;29;20050;-62
2023/12/21 11:54:04;;;;;;;10.10;1.33;;;10.80;99.90;;;;;;4857323;29;20057;-61
2023/12/21 11:56:36;;;;;;;14.57;2.42;;;10.90;99.90;;;;;;4871360;29;20486;-62
2023/12/21 11:59:06;;;;;;;11.23;1.15;;;10.90;99.90;;;;;;4860770;29;20056;-62
2023/12/21 12:01:34;;;;;;;8.05;1.20;;;10.90;99.90;;;;;;4872051;29;20486;-62
2023/12/21 12:04:05;;;;;;;13.95;1.60;;;10.90;99.90;;;;;;4874405;29;20056;-65
2023/12/21 12:06:36;;;;;;;13.60;1.90;;;10.90;99.90;;;;;;4871254;29;20045;-63
2023/12/21 12:09:05;;;;;;;9.52;1.75;;;11.00;99.90;;;;;;4868906;29;20071;-64
2023/12/21 12:11:33;;;;;;;10.95;1.75;;;11.00;99.90;;;;;;4858498;29;20516;-65
2023/12/21 12:14:01;;;;;;;13.75;2.65;;;11.10;99.90;;;;;;4870485;29;20069;-64
2023/12/21 12:16:29;;;;;;;11.52;2.42;;;11.10;99.90;;;;;;4874381;29;20052;-68
2023/12/21 12:18:57;;;;;;;12.80;2.35;;;11.20;99.90;;;;;;4869148;29;20560;-66
2023/12/21 12:21:26;;;;;;;18.48;2.80;;;11.30;99.90;;;;;;4858147;29;20060;-62
2023/12/21 12:23:54;;;;;;;20.92;2.88;;;11.40;99.90;;;;;;4862278;29;20045;-62
2023/12/21 12:26:22;;;;;;;18.05;2.35;;;11.40;99.90;;;;;;4855684;29;20053;-65
2023/12/21 12:28:51;;;;;;;15.00;2.30;;;11.50;99.90;;;;;;4865841;29;20112;-66
2023/12/21 12:31:20;;;;;;;15.10;2.77;;;11.50;99.90;;;;;;4859661;29;20045;-62
2023/12/21 12:33:48;;;;;;;14.40;2.35;;;11.50;99.90;;;;;;4866288;29;20049;-62
2023/12/21 12:36:18;;;;;;;14.32;2.05;;;11.50;99.90;;;;;;4868667;29;20046;-62
2023/12/21 12:38:48;;;;;;;14.40;2.03;;;11.50;99.90;;;;;;4855937;29;20049;-64
2023/12/21 12:41:20;;;;;;;19.38;2.53;;;11.50;99.90;;;;;;4868602;29;20062;-70
2023/12/21 12:43:49;;;;;;;9.32;2.42;;;11.50;99.90;;;;;;4860519;29;20068;-70
2023/12/21 12:46:20;;;;;;;9.45;2.45;;;11.60;99.90;;;;;;4856318;29;20054;-62
2023/12/21 12:48:49;;;;;;;15.93;2.97;;;11.60;99.90;;;;;;4849381;29;20049;-61
2023/12/21 12:51:17;;;;;;;14.57;1.88;;;11.90;99.90;;;;;;4842515;29;20069;-61
2023/12/21 12:53:46;;;;;;;14.93;2.90;;;11.90;99.90;;;;;;4884887;29;20486;-61